sensor_id;sensor_type;location;lat;lon;timestamp;P1;durP1;ratioP1;P2;durP2;ratioP2
13415;SDS011;6779;50.150;8.680;2023-02-01T00:01:42;6.53;;;3.90;;
13415;SDS011;6779;50.150;8.680;2023-02-01T00:04:08;5.53;;;3.60;;
13415;SDS011;6779;50.150;8.680;2023-02-01T00:06:33;7.03;;;3.93;;
13415;SDS011;6779;50.150;8.680;2023-02-01T00:08:59;4.80;;;4.00;;
13415;SDS011;6779;50.150;8.680;2023-02-01T00:11:25;4.67;;;3.60;;
13415;SDS011;6779;50.150;8.680;2023-02-01T00:13:51;9.63;;;5.40;;
13415;SDS011;6779;50.150;8.680;2023-02-01T00:16:18;5.87;;;3.90;;
13415;SDS011;6779;50.150;8.680;2023-02-01T00:18:46;6.00;;;4.13;;
13415;SDS011;6779;50.150;8.680;2023-02-01T00:21:15;5.53;;;3.63;;
13415;SDS011;6779;50.150;8.680;2023-02-01T00:23:42;5.67;;;4.03;;
13415;SDS011;6779;50.150;8.680;2023-02-01T00:26:16;7.37;;;4.27;;
13415;SDS011;6779;50.150;8.680;2023-02-01T00:28:47;7.43;;;3.73;;
13415;SDS011;6779;50.150;8.680;2023-02-01T00:31:14;4.53;;;3.60;;
13415;SDS011;6779;50.150;8.680;2023-02-01T00:33:39;5.80;;;4.37;;
13415;SDS011;6779;50.150;8.680;2023-02-01T00:36:06;5.20;;;3.67;;
13415;SDS011;6779;50.150;8.680;2023-02-01T00:38:33;5.37;;;3.77;;
13415;SDS011;6779;50.150;8.680;2023-02-01T00:41:05;9.77;;;3.73;;
13415;SDS011;6779;50.150;8.680;2023-02-01T00:43:38;5.27;;;3.83;;
13415;SDS011;6779;50.150;8.680;2023-02-01T00:46:04;5.97;;;3.87;;
13415;SDS011;6779;50.150;8.680;2023-02-01T00:48:30;5.07;;;3.90;;
13415;SDS011;6779;50.150;8.680;2023-02-01T00:51:02;6.37;;;3.90;;
13415;SDS011;6779;50.150;8.680;2023-02-01T00:53:30;4.03;;;3.63;;
13415;SDS011;6779;50.150;8.680;2023-02-01T00:55:56;7.13;;;3.73;;
13415;SDS011;6779;50.150;8.680;2023-02-01T00:58:22;7.43;;;3.90;;
13415;SDS011;6779;50.150;8.680;2023-02-01T01:00:54;5.57;;;4.20;;
13415;SDS011;6779;50.150;8.680;2023-02-01T01:03:27;6.13;;;3.60;;
13415;SDS011;6779;50.150;8.680;2023-02-01T01:05:56;6.00;;;4.03;;
13415;SDS011;6779;50.150;8.680;2023-02-01T01:08:22;10.03;;;3.97;;
13415;SDS011;6779;50.150;8.680;2023-02-01T01:10:48;7.17;;;4.43;;
13415;SDS011;6779;50.150;8.680;2023-02-01T01:13:14;5.97;;;4.03;;
13415;SDS011;6779;50.150;8.680;2023-02-01T01:15:39;5.67;;;4.37;;
13415;SDS011;6779;50.150;8.680;2023-02-01T01:18:05;7.80;;;4.97;;
13415;SDS011;6779;50.150;8.680;2023-02-01T01:20:33;6.60;;;4.27;;
13415;SDS011;6779;50.150;8.680;2023-02-01T01:23:00;8.50;;;4.83;;
13415;SDS011;6779;50.150;8.680;2023-02-01T01:25:26;8.20;;;4.93;;
13415;SDS011;6779;50.150;8.680;2023-02-01T01:27:51;8.50;;;4.80;;
13415;SDS011;6779;50.150;8.680;2023-02-01T01:30:17;8.00;;;4.93;;
13415;SDS011;6779;50.150;8.680;2023-02-01T01:32:42;5.97;;;4.77;;
13415;SDS011;6779;50.150;8.680;2023-02-01T01:35:08;7.87;;;5.03;;
13415;SDS011;6779;50.150;8.680;2023-02-01T01:37:34;7.63;;;4.97;;
13415;SDS011;6779;50.150;8.680;2023-02-01T01:40:00;7.47;;;4.87;;
13415;SDS011;6779;50.150;8.680;2023-02-01T01:42:27;8.27;;;5.40;;
13415;SDS011;6779;50.150;8.680;2023-02-01T01:45:53;7.87;;;5.70;;
13415;SDS011;6779;50.150;8.680;2023-02-01T01:47:56;8.73;;;5.03;;
13415;SDS011;6779;50.150;8.680;2023-02-01T01:50:26;11.20;;;6.50;;
13415;SDS011;6779;50.150;8.680;2023-02-01T01:52:55;7.10;;;4.67;;
13415;SDS011;6779;50.150;8.680;2023-02-01T01:55:24;6.60;;;4.83;;
13415;SDS011;6779;50.150;8.680;2023-02-01T01:57:57;10.60;;;5.20;;
13415;SDS011;6779;50.150;8.680;2023-02-01T02:00:26;9.40;;;5.67;;
13415;SDS011;6779;50.150;8.680;2023-02-01T02:03:00;9.30;;;5.43;;
13415;SDS011;6779;50.150;8.680;2023-02-01T02:05:47;6.80;;;5.37;;
13415;SDS011;6779;50.150;8.680;2023-02-01T02:08:16;6.97;;;5.50;;
13415;SDS011;6779;50.150;8.680;2023-02-01T02:10:45;7.60;;;5.77;;
13415;SDS011;6779;50.150;8.680;2023-02-01T02:13:32;8.67;;;5.77;;
13415;SDS011;6779;50.150;8.680;2023-02-01T02:24:17;11.20;;;5.70;;
13415;SDS011;6779;50.150;8.680;2023-02-01T02:36:03;8.63;;;6.10;;
13415;SDS011;6779;50.150;8.680;2023-02-01T02:38:38;11.33;;;6.53;;
13415;SDS011;6779;50.150;8.680;2023-02-01T02:41:13;11.47;;;6.93;;
13415;SDS011;6779;50.150;8.680;2023-02-01T02:44:07;10.57;;;6.80;;
13415;SDS011;6779;50.150;8.680;2023-02-01T02:46:58;9.03;;;6.33;;
13415;SDS011;6779;50.150;8.680;2023-02-01T02:49:49;13.43;;;6.50;;
13415;SDS011;6779;50.150;8.680;2023-02-01T02:52:54;13.67;;;6.63;;
13415;SDS011;6779;50.150;8.680;2023-02-01T02:55:53;10.50;;;6.40;;
13415;SDS011;6779;50.150;8.680;2023-02-01T02:58:39;13.10;;;6.73;;
13415;SDS011;6779;50.150;8.680;2023-02-01T03:01:25;15.17;;;7.80;;
13415;SDS011;6779;50.150;8.680;2023-02-01T03:04:09;10.00;;;6.90;;
13415;SDS011;6779;50.150;8.680;2023-02-01T03:06:39;11.07;;;6.90;;
13415;SDS011;6779;50.150;8.680;2023-02-01T03:09:06;11.37;;;7.37;;
13415;SDS011;6779;50.150;8.680;2023-02-01T03:11:38;12.50;;;6.70;;
13415;SDS011;6779;50.150;8.680;2023-02-01T03:14:24;10.47;;;6.67;;
13415;SDS011;6779;50.150;8.680;2023-02-01T03:16:58;10.40;;;6.80;;
13415;SDS011;6779;50.150;8.680;2023-02-01T03:19:32;12.73;;;7.17;;
13415;SDS011;6779;50.150;8.680;2023-02-01T03:22:07;11.40;;;7.00;;
13415;SDS011;6779;50.150;8.680;2023-02-01T03:24:42;10.40;;;6.67;;
13415;SDS011;6779;50.150;8.680;2023-02-01T03:27:18;11.90;;;6.80;;
13415;SDS011;6779;50.150;8.680;2023-02-01T03:29:54;11.20;;;6.93;;
13415;SDS011;6779;50.150;8.680;2023-02-01T03:32:21;11.47;;;7.40;;
13415;SDS011;6779;50.150;8.680;2023-02-01T03:34:47;12.40;;;6.83;;
13415;SDS011;6779;50.150;8.680;2023-02-01T03:37:14;12.53;;;7.40;;
13415;SDS011;6779;50.150;8.680;2023-02-01T03:42:44;11.87;;;6.67;;
13415;SDS011;6779;50.150;8.680;2023-02-01T03:45:17;9.30;;;5.60;;
13415;SDS011;6779;50.150;8.680;2023-02-01T03:47:48;16.40;;;6.07;;
13415;SDS011;6779;50.150;8.680;2023-02-01T03:50:21;9.07;;;5.10;;
13415;SDS011;6779;50.150;8.680;2023-02-01T03:52:57;10.40;;;5.73;;
13415;SDS011;6779;50.150;8.680;2023-02-01T03:55:26;6.43;;;5.30;;
13415;SDS011;6779;50.150;8.680;2023-02-01T03:57:54;7.63;;;4.87;;
13415;SDS011;6779;50.150;8.680;2023-02-01T04:00:38;6.90;;;4.80;;
13415;SDS011;6779;50.150;8.680;2023-02-01T04:03:04;6.73;;;4.97;;
13415;SDS011;6779;50.150;8.680;2023-02-01T04:05:31;9.30;;;4.87;;
13415;SDS011;6779;50.150;8.680;2023-02-01T04:07:57;7.57;;;4.83;;
13415;SDS011;6779;50.150;8.680;2023-02-01T04:10:23;8.43;;;4.63;;
13415;SDS011;6779;50.150;8.680;2023-02-01T04:12:49;9.07;;;5.10;;
13415;SDS011;6779;50.150;8.680;2023-02-01T04:15:14;7.60;;;5.00;;
13415;SDS011;6779;50.150;8.680;2023-02-01T04:17:40;5.80;;;4.37;;
13415;SDS011;6779;50.150;8.680;2023-02-01T04:20:06;7.37;;;4.60;;
13415;SDS011;6779;50.150;8.680;2023-02-01T04:22:31;10.13;;;5.20;;
13415;SDS011;6779;50.150;8.680;2023-02-01T04:24:57;8.03;;;5.47;;
13415;SDS011;6779;50.150;8.680;2023-02-01T04:27:22;9.07;;;4.83;;
13415;SDS011;6779;50.150;8.680;2023-02-01T04:29:48;9.97;;;5.47;;
13415;SDS011;6779;50.150;8.680;2023-02-01T04:32:16;16.03;;;7.87;;
13415;SDS011;6779;50.150;8.680;2023-02-01T04:34:42;8.00;;;5.33;;
13415;SDS011;6779;50.150;8.680;2023-02-01T04:37:08;9.37;;;5.63;;
13415;SDS011;6779;50.150;8.680;2023-02-01T04:39:34;8.87;;;5.53;;
13415;SDS011;6779;50.150;8.680;2023-02-01T04:41:59;6.57;;;4.87;;
13415;SDS011;6779;50.150;8.680;2023-02-01T04:44:25;9.80;;;5.90;;
13415;SDS011;6779;50.150;8.680;2023-02-01T04:46:50;10.97;;;5.90;;
13415;SDS011;6779;50.150;8.680;2023-02-01T04:49:16;9.93;;;5.40;;
13415;SDS011;6779;50.150;8.680;2023-02-01T04:51:42;9.63;;;5.00;;
13415;SDS011;6779;50.150;8.680;2023-02-01T04:54:08;7.73;;;5.33;;
13415;SDS011;6779;50.150;8.680;2023-02-01T04:56:36;9.43;;;5.40;;
13415;SDS011;6779;50.150;8.680;2023-02-01T04:59:02;10.57;;;5.70;;
13415;SDS011;6779;50.150;8.680;2023-02-01T05:01:28;10.97;;;5.77;;
13415;SDS011;6779;50.150;8.680;2023-02-01T05:03:53;9.70;;;6.07;;
13415;SDS011;6779;50.150;8.680;2023-02-01T05:06:19;9.87;;;5.73;;
13415;SDS011;6779;50.150;8.680;2023-02-01T05:08:45;11.43;;;5.63;;
13415;SDS011;6779;50.150;8.680;2023-02-01T05:11:11;8.47;;;5.13;;
13415;SDS011;6779;50.150;8.680;2023-02-01T05:13:57;10.17;;;5.50;;
13415;SDS011;6779;50.150;8.680;2023-02-01T05:16:23;8.83;;;6.00;;
13415;SDS011;6779;50.150;8.680;2023-02-01T05:18:48;9.07;;;5.47;;
13415;SDS011;6779;50.150;8.680;2023-02-01T05:21:14;12.37;;;5.40;;
13415;SDS011;6779;50.150;8.680;2023-02-01T05:23:39;10.60;;;5.67;;
13415;SDS011;6779;50.150;8.680;2023-02-01T05:26:23;11.00;;;5.60;;
13415;SDS011;6779;50.150;8.680;2023-02-01T05:28:49;7.67;;;4.53;;
13415;SDS011;6779;50.150;8.680;2023-02-01T05:31:15;7.23;;;5.07;;
13415;SDS011;6779;50.150;8.680;2023-02-01T05:33:41;7.93;;;4.60;;
13415;SDS011;6779;50.150;8.680;2023-02-01T05:36:07;9.90;;;4.87;;
13415;SDS011;6779;50.150;8.680;2023-02-01T05:38:32;5.03;;;4.33;;
13415;SDS011;6779;50.150;8.680;2023-02-01T05:40:58;9.30;;;4.93;;
13415;SDS011;6779;50.150;8.680;2023-02-01T05:43:23;8.47;;;5.33;;
13415;SDS011;6779;50.150;8.680;2023-02-01T05:45:49;7.80;;;4.23;;
13415;SDS011;6779;50.150;8.680;2023-02-01T05:48:16;8.10;;;4.87;;
13415;SDS011;6779;50.150;8.680;2023-02-01T05:50:42;8.37;;;4.57;;
13415;SDS011;6779;50.150;8.680;2023-02-01T05:53:08;10.93;;;3.97;;
13415;SDS011;6779;50.150;8.680;2023-02-01T05:55:33;7.43;;;4.53;;
13415;SDS011;6779;50.150;8.680;2023-02-01T05:57:59;11.57;;;4.80;;
13415;SDS011;6779;50.150;8.680;2023-02-01T06:00:24;6.90;;;4.13;;
13415;SDS011;6779;50.150;8.680;2023-02-01T06:02:50;10.57;;;4.30;;
13415;SDS011;6779;50.150;8.680;2023-02-01T06:05:16;8.03;;;4.00;;
13415;SDS011;6779;50.150;8.680;2023-02-01T06:07:41;12.23;;;3.70;;
13415;SDS011;6779;50.150;8.680;2023-02-01T06:10:07;7.63;;;3.77;;
13415;SDS011;6779;50.150;8.680;2023-02-01T06:12:33;8.20;;;3.73;;
13415;SDS011;6779;50.150;8.680;2023-02-01T06:15:00;7.73;;;4.77;;
13415;SDS011;6779;50.150;8.680;2023-02-01T06:17:25;10.17;;;4.03;;
13415;SDS011;6779;50.150;8.680;2023-02-01T06:19:51;8.93;;;3.57;;
13415;SDS011;6779;50.150;8.680;2023-02-01T06:22:16;10.87;;;3.80;;
13415;SDS011;6779;50.150;8.680;2023-02-01T06:24:42;9.60;;;3.27;;
13415;SDS011;6779;50.150;8.680;2023-02-01T06:27:08;7.77;;;3.77;;
13415;SDS011;6779;50.150;8.680;2023-02-01T06:29:34;9.43;;;3.57;;
13415;SDS011;6779;50.150;8.680;2023-02-01T06:32:00;12.63;;;3.53;;
13415;SDS011;6779;50.150;8.680;2023-02-01T06:34:25;9.27;;;3.27;;
13415;SDS011;6779;50.150;8.680;2023-02-01T06:36:51;6.70;;;3.20;;
13415;SDS011;6779;50.150;8.680;2023-02-01T06:39:16;9.37;;;4.20;;
13415;SDS011;6779;50.150;8.680;2023-02-01T06:41:45;9.53;;;3.53;;
13415;SDS011;6779;50.150;8.680;2023-02-01T06:44:11;9.33;;;3.77;;
13415;SDS011;6779;50.150;8.680;2023-02-01T06:46:37;5.63;;;3.53;;
13415;SDS011;6779;50.150;8.680;2023-02-01T06:49:02;15.03;;;3.80;;
13415;SDS011;6779;50.150;8.680;2023-02-01T06:51:28;8.37;;;3.20;;
13415;SDS011;6779;50.150;8.680;2023-02-01T06:53:54;8.53;;;3.20;;
13415;SDS011;6779;50.150;8.680;2023-02-01T06:56:20;7.53;;;3.70;;
13415;SDS011;6779;50.150;8.680;2023-02-01T06:58:46;7.20;;;3.37;;
13415;SDS011;6779;50.150;8.680;2023-02-01T07:01:11;12.73;;;4.00;;
13415;SDS011;6779;50.150;8.680;2023-02-01T07:03:37;13.83;;;3.40;;
13415;SDS011;6779;50.150;8.680;2023-02-01T07:06:03;9.50;;;3.20;;
13415;SDS011;6779;50.150;8.680;2023-02-01T07:08:30;6.80;;;2.93;;
13415;SDS011;6779;50.150;8.680;2023-02-01T07:11:01;8.60;;;4.00;;
13415;SDS011;6779;50.150;8.680;2023-02-01T07:13:27;9.00;;;3.50;;
13415;SDS011;6779;50.150;8.680;2023-02-01T07:15:52;8.17;;;4.07;;
13415;SDS011;6779;50.150;8.680;2023-02-01T07:18:18;14.40;;;3.77;;
13415;SDS011;6779;50.150;8.680;2023-02-01T07:20:46;10.20;;;3.07;;
13415;SDS011;6779;50.150;8.680;2023-02-01T07:23:16;7.10;;;2.67;;
13415;SDS011;6779;50.150;8.680;2023-02-01T07:25:41;10.73;;;3.40;;
13415;SDS011;6779;50.150;8.680;2023-02-01T07:28:07;10.87;;;2.90;;
13415;SDS011;6779;50.150;8.680;2023-02-01T07:30:33;11.83;;;3.23;;
13415;SDS011;6779;50.150;8.680;2023-02-01T07:32:58;10.23;;;3.57;;
13415;SDS011;6779;50.150;8.680;2023-02-01T07:35:26;9.60;;;2.77;;
13415;SDS011;6779;50.150;8.680;2023-02-01T07:37:52;7.83;;;2.83;;
13415;SDS011;6779;50.150;8.680;2023-02-01T07:40:17;9.47;;;3.13;;
13415;SDS011;6779;50.150;8.680;2023-02-01T07:42:43;9.17;;;3.00;;
13415;SDS011;6779;50.150;8.680;2023-02-01T07:45:09;12.03;;;3.40;;
13415;SDS011;6779;50.150;8.680;2023-02-01T07:47:34;10.40;;;3.00;;
13415;SDS011;6779;50.150;8.680;2023-02-01T07:50:00;6.20;;;2.60;;
13415;SDS011;6779;50.150;8.680;2023-02-01T07:52:27;6.30;;;3.50;;
13415;SDS011;6779;50.150;8.680;2023-02-01T07:54:53;16.63;;;3.27;;
13415;SDS011;6779;50.150;8.680;2023-02-01T07:57:19;7.57;;;2.73;;
13415;SDS011;6779;50.150;8.680;2023-02-01T07:59:44;8.73;;;3.50;;
13415;SDS011;6779;50.150;8.680;2023-02-01T08:02:33;7.37;;;3.00;;
13415;SDS011;6779;50.150;8.680;2023-02-01T08:04:58;8.80;;;3.40;;
13415;SDS011;6779;50.150;8.680;2023-02-01T08:07:24;4.57;;;2.60;;
13415;SDS011;6779;50.150;8.680;2023-02-01T08:09:49;7.17;;;2.93;;
13415;SDS011;6779;50.150;8.680;2023-02-01T08:12:15;8.50;;;2.60;;
13415;SDS011;6779;50.150;8.680;2023-02-01T08:14:40;8.60;;;3.23;;
13415;SDS011;6779;50.150;8.680;2023-02-01T08:17:06;7.30;;;2.77;;
13415;SDS011;6779;50.150;8.680;2023-02-01T08:19:32;9.17;;;3.00;;
13415;SDS011;6779;50.150;8.680;2023-02-01T08:21:57;8.63;;;2.70;;
13415;SDS011;6779;50.150;8.680;2023-02-01T08:24:24;7.37;;;2.77;;
13415;SDS011;6779;50.150;8.680;2023-02-01T08:26:50;11.63;;;3.30;;
13415;SDS011;6779;50.150;8.680;2023-02-01T08:29:15;10.33;;;3.10;;
13415;SDS011;6779;50.150;8.680;2023-02-01T08:31:41;11.83;;;3.67;;
13415;SDS011;6779;50.150;8.680;2023-02-01T08:34:07;8.90;;;2.93;;
13415;SDS011;6779;50.150;8.680;2023-02-01T08:36:33;9.27;;;3.37;;
13415;SDS011;6779;50.150;8.680;2023-02-01T08:38:59;8.27;;;3.83;;
13415;SDS011;6779;50.150;8.680;2023-02-01T08:41:25;6.37;;;2.40;;
13415;SDS011;6779;50.150;8.680;2023-02-01T08:43:53;10.77;;;3.57;;
13415;SDS011;6779;50.150;8.680;2023-02-01T08:46:19;9.20;;;2.77;;
13415;SDS011;6779;50.150;8.680;2023-02-01T08:48:45;9.73;;;2.73;;
13415;SDS011;6779;50.150;8.680;2023-02-01T08:51:12;4.90;;;2.73;;
13415;SDS011;6779;50.150;8.680;2023-02-01T08:53:40;9.03;;;3.10;;
13415;SDS011;6779;50.150;8.680;2023-02-01T08:56:06;8.13;;;2.67;;
13415;SDS011;6779;50.150;8.680;2023-02-01T08:58:33;10.47;;;3.13;;
13415;SDS011;6779;50.150;8.680;2023-02-01T09:01:06;10.23;;;2.80;;
13415;SDS011;6779;50.150;8.680;2023-02-01T09:03:33;11.30;;;3.17;;
13415;SDS011;6779;50.150;8.680;2023-02-01T09:06:02;6.57;;;2.97;;
13415;SDS011;6779;50.150;8.680;2023-02-01T09:08:35;9.07;;;2.60;;
13415;SDS011;6779;50.150;8.680;2023-02-01T09:11:02;11.63;;;2.63;;
13415;SDS011;6779;50.150;8.680;2023-02-01T09:13:31;8.97;;;3.17;;
13415;SDS011;6779;50.150;8.680;2023-02-01T09:15:56;8.73;;;3.07;;
13415;SDS011;6779;50.150;8.680;2023-02-01T09:18:24;5.47;;;2.30;;
13415;SDS011;6779;50.150;8.680;2023-02-01T09:20:50;8.27;;;2.60;;
13415;SDS011;6779;50.150;8.680;2023-02-01T09:23:15;6.10;;;2.67;;
13415;SDS011;6779;50.150;8.680;2023-02-01T09:25:41;7.30;;;2.73;;
13415;SDS011;6779;50.150;8.680;2023-02-01T09:28:06;6.10;;;2.07;;
13415;SDS011;6779;50.150;8.680;2023-02-01T09:30:34;9.73;;;3.10;;
13415;SDS011;6779;50.150;8.680;2023-02-01T09:33:00;4.60;;;2.60;;
13415;SDS011;6779;50.150;8.680;2023-02-01T09:35:25;12.33;;;2.93;;
13415;SDS011;6779;50.150;8.680;2023-02-01T09:37:52;9.23;;;2.43;;
13415;SDS011;6779;50.150;8.680;2023-02-01T09:40:17;8.80;;;2.90;;
13415;SDS011;6779;50.150;8.680;2023-02-01T09:48:00;9.27;;;3.00;;
13415;SDS011;6779;50.150;8.680;2023-02-01T09:50:32;11.07;;;3.17;;
13415;SDS011;6779;50.150;8.680;2023-02-01T09:55:55;5.90;;;2.50;;
13415;SDS011;6779;50.150;8.680;2023-02-01T09:58:32;7.57;;;2.80;;
13415;SDS011;6779;50.150;8.680;2023-02-01T10:01:03;7.57;;;2.60;;
13415;SDS011;6779;50.150;8.680;2023-02-01T10:03:31;12.00;;;3.00;;
13415;SDS011;6779;50.150;8.680;2023-02-01T10:09:08;9.13;;;2.60;;
13415;SDS011;6779;50.150;8.680;2023-02-01T10:11:54;6.77;;;3.27;;
13415;SDS011;6779;50.150;8.680;2023-02-01T10:14:59;7.27;;;2.77;;
13415;SDS011;6779;50.150;8.680;2023-02-01T10:17:55;6.07;;;2.43;;
13415;SDS011;6779;50.150;8.680;2023-02-01T10:26:36;9.30;;;2.67;;
13415;SDS011;6779;50.150;8.680;2023-02-01T10:29:04;8.43;;;2.63;;
13415;SDS011;6779;50.150;8.680;2023-02-01T10:31:40;6.30;;;2.63;;
13415;SDS011;6779;50.150;8.680;2023-02-01T10:34:22;9.67;;;2.70;;
13415;SDS011;6779;50.150;8.680;2023-02-01T10:37:13;10.20;;;2.60;;
13415;SDS011;6779;50.150;8.680;2023-02-01T10:39:49;10.73;;;2.50;;
13415;SDS011;6779;50.150;8.680;2023-02-01T10:42:17;6.53;;;2.57;;
13415;SDS011;6779;50.150;8.680;2023-02-01T10:44:46;8.37;;;2.60;;
13415;SDS011;6779;50.150;8.680;2023-02-01T10:47:13;17.93;;;4.50;;
13415;SDS011;6779;50.150;8.680;2023-02-01T10:49:58;7.07;;;2.40;;
13415;SDS011;6779;50.150;8.680;2023-02-01T10:52:42;8.90;;;2.97;;
13415;SDS011;6779;50.150;8.680;2023-02-01T10:55:38;9.87;;;2.60;;
13415;SDS011;6779;50.150;8.680;2023-02-01T10:58:07;6.47;;;2.20;;
13415;SDS011;6779;50.150;8.680;2023-02-01T11:00:47;4.00;;;2.17;;
13415;SDS011;6779;50.150;8.680;2023-02-01T11:05:53;7.97;;;2.60;;
13415;SDS011;6779;50.150;8.680;2023-02-01T11:08:20;9.13;;;2.50;;
13415;SDS011;6779;50.150;8.680;2023-02-01T11:10:46;8.23;;;2.30;;
13415;SDS011;6779;50.150;8.680;2023-02-01T11:13:16;8.53;;;2.37;;
13415;SDS011;6779;50.150;8.680;2023-02-01T11:15:47;9.70;;;2.47;;
13415;SDS011;6779;50.150;8.680;2023-02-01T11:18:26;9.13;;;2.60;;
13415;SDS011;6779;50.150;8.680;2023-02-01T11:20:53;8.93;;;2.57;;
13415;SDS011;6779;50.150;8.680;2023-02-01T11:23:30;4.40;;;2.10;;
13415;SDS011;6779;50.150;8.680;2023-02-01T11:26:07;5.43;;;2.70;;
13415;SDS011;6779;50.150;8.680;2023-02-01T11:28:40;14.27;;;3.13;;
13415;SDS011;6779;50.150;8.680;2023-02-01T11:31:12;10.30;;;3.07;;
13415;SDS011;6779;50.150;8.680;2023-02-01T11:33:41;7.93;;;2.33;;
13415;SDS011;6779;50.150;8.680;2023-02-01T11:36:14;8.23;;;3.00;;
13415;SDS011;6779;50.150;8.680;2023-02-01T11:38:47;6.93;;;2.60;;
13415;SDS011;6779;50.150;8.680;2023-02-01T11:41:25;8.67;;;2.73;;
13415;SDS011;6779;50.150;8.680;2023-02-01T11:43:56;8.40;;;2.27;;
13415;SDS011;6779;50.150;8.680;2023-02-01T11:46:26;10.77;;;2.40;;
13415;SDS011;6779;50.150;8.680;2023-02-01T11:48:55;8.93;;;2.40;;
13415;SDS011;6779;50.150;8.680;2023-02-01T11:51:32;13.67;;;2.83;;
13415;SDS011;6779;50.150;8.680;2023-02-01T11:54:10;10.07;;;2.37;;
13415;SDS011;6779;50.150;8.680;2023-02-01T11:57:21;10.70;;;2.83;;
13415;SDS011;6779;50.150;8.680;2023-02-01T12:00:32;5.07;;;2.70;;
13415;SDS011;6779;50.150;8.680;2023-02-01T12:03:06;10.03;;;2.73;;
13415;SDS011;6779;50.150;8.680;2023-02-01T12:08:05;8.40;;;2.10;;
13415;SDS011;6779;50.150;8.680;2023-02-01T12:10:50;4.67;;;2.30;;
13415;SDS011;6779;50.150;8.680;2023-02-01T12:13:27;5.90;;;2.67;;
13415;SDS011;6779;50.150;8.680;2023-02-01T12:22:01;7.53;;;2.57;;
13415;SDS011;6779;50.150;8.680;2023-02-01T12:35:45;7.00;;;2.63;;
13415;SDS011;6779;50.150;8.680;2023-02-01T12:43:45;5.90;;;2.30;;
13415;SDS011;6779;50.150;8.680;2023-02-01T12:46:33;16.97;;;2.90;;
13415;SDS011;6779;50.150;8.680;2023-02-01T12:52:02;5.10;;;2.43;;
13415;SDS011;6779;50.150;8.680;2023-02-01T12:54:37;11.77;;;2.60;;
13415;SDS011;6779;50.150;8.680;2023-02-01T12:57:11;10.00;;;2.40;;
13415;SDS011;6779;50.150;8.680;2023-02-01T13:07:39;14.10;;;3.23;;
13415;SDS011;6779;50.150;8.680;2023-02-01T13:12:49;7.70;;;2.67;;
13415;SDS011;6779;50.150;8.680;2023-02-01T13:15:21;9.70;;;2.20;;
13415;SDS011;6779;50.150;8.680;2023-02-01T13:17:51;10.53;;;2.47;;
13415;SDS011;6779;50.150;8.680;2023-02-01T13:20:32;7.80;;;2.67;;
13415;SDS011;6779;50.150;8.680;2023-02-01T13:23:05;8.23;;;2.27;;
13415;SDS011;6779;50.150;8.680;2023-02-01T13:25:47;8.27;;;2.60;;
13415;SDS011;6779;50.150;8.680;2023-02-01T13:28:16;8.27;;;2.40;;
13415;SDS011;6779;50.150;8.680;2023-02-01T13:31:13;10.37;;;2.53;;
13415;SDS011;6779;50.150;8.680;2023-02-01T13:33:46;9.67;;;2.67;;
13415;SDS011;6779;50.150;8.680;2023-02-01T13:39:59;9.20;;;2.30;;
13415;SDS011;6779;50.150;8.680;2023-02-01T13:42:26;5.83;;;2.53;;
13415;SDS011;6779;50.150;8.680;2023-02-01T13:45:20;8.30;;;2.47;;
13415;SDS011;6779;50.150;8.680;2023-02-01T13:47:49;7.57;;;2.20;;
13415;SDS011;6779;50.150;8.680;2023-02-01T13:52:50;6.00;;;2.10;;
13415;SDS011;6779;50.150;8.680;2023-02-01T13:57:48;7.80;;;2.30;;
13415;SDS011;6779;50.150;8.680;2023-02-01T14:03:01;7.60;;;1.83;;
13415;SDS011;6779;50.150;8.680;2023-02-01T14:13:30;7.43;;;2.20;;
13415;SDS011;6779;50.150;8.680;2023-02-01T14:23:43;5.20;;;1.90;;
13415;SDS011;6779;50.150;8.680;2023-02-01T14:26:12;9.40;;;2.17;;
13415;SDS011;6779;50.150;8.680;2023-02-01T14:31:47;8.70;;;1.93;;
13415;SDS011;6779;50.150;8.680;2023-02-01T14:34:27;5.47;;;2.00;;
13415;SDS011;6779;50.150;8.680;2023-02-01T14:39:50;7.53;;;2.13;;
13415;SDS011;6779;50.150;8.680;2023-02-01T14:48:45;6.77;;;1.77;;
13415;SDS011;6779;50.150;8.680;2023-02-01T14:50:39;4.93;;;1.80;;
13415;SDS011;6779;50.150;8.680;2023-02-01T14:58:21;4.93;;;1.90;;
13415;SDS011;6779;50.150;8.680;2023-02-01T15:00:56;6.80;;;1.90;;
13415;SDS011;6779;50.150;8.680;2023-02-01T15:03:27;10.57;;;1.67;;
13415;SDS011;6779;50.150;8.680;2023-02-01T15:06:22;7.10;;;2.13;;
13415;SDS011;6779;50.150;8.680;2023-02-01T15:08:55;4.77;;;1.70;;
13415;SDS011;6779;50.150;8.680;2023-02-01T15:11:24;5.23;;;1.90;;
13415;SDS011;6779;50.150;8.680;2023-02-01T15:13:51;7.83;;;1.73;;
13415;SDS011;6779;50.150;8.680;2023-02-01T15:16:19;4.03;;;1.77;;
13415;SDS011;6779;50.150;8.680;2023-02-01T15:18:47;10.40;;;2.00;;
13415;SDS011;6779;50.150;8.680;2023-02-01T15:21:23;8.27;;;2.07;;
13415;SDS011;6779;50.150;8.680;2023-02-01T15:23:50;7.23;;;1.77;;
13415;SDS011;6779;50.150;8.680;2023-02-01T15:26:28;6.05;;;1.88;;
13415;SDS011;6779;50.150;8.680;2023-02-01T15:28:56;6.00;;;1.97;;
13415;SDS011;6779;50.150;8.680;2023-02-01T15:31:36;5.37;;;2.00;;
13415;SDS011;6779;50.150;8.680;2023-02-01T15:34:03;8.47;;;1.93;;
13415;SDS011;6779;50.150;8.680;2023-02-01T15:36:29;3.37;;;1.57;;
13415;SDS011;6779;50.150;8.680;2023-02-01T15:41:48;7.97;;;1.77;;
13415;SDS011;6779;50.150;8.680;2023-02-01T15:46:47;7.53;;;2.60;;
13415;SDS011;6779;50.150;8.680;2023-02-01T15:51:51;9.63;;;2.10;;
13415;SDS011;6779;50.150;8.680;2023-02-01T15:54:26;6.40;;;2.30;;
13415;SDS011;6779;50.150;8.680;2023-02-01T15:56:55;5.10;;;1.60;;
13415;SDS011;6779;50.150;8.680;2023-02-01T15:59:24;7.43;;;1.93;;
13415;SDS011;6779;50.150;8.680;2023-02-01T16:01:54;5.27;;;2.57;;
13415;SDS011;6779;50.150;8.680;2023-02-01T16:04:24;3.57;;;1.80;;
13415;SDS011;6779;50.150;8.680;2023-02-01T16:06:55;5.87;;;2.20;;
13415;SDS011;6779;50.150;8.680;2023-02-01T16:09:39;4.43;;;1.93;;
13415;SDS011;6779;50.150;8.680;2023-02-01T16:12:26;8.20;;;4.30;;
13415;SDS011;6779;50.150;8.680;2023-02-01T16:15:10;6.80;;;1.60;;
13415;SDS011;6779;50.150;8.680;2023-02-01T16:17:36;15.93;;;2.77;;
13415;SDS011;6779;50.150;8.680;2023-02-01T16:20:02;8.27;;;3.30;;
13415;SDS011;6779;50.150;8.680;2023-02-01T16:22:28;6.70;;;2.13;;
13415;SDS011;6779;50.150;8.680;2023-02-01T16:24:53;7.37;;;1.63;;
13415;SDS011;6779;50.150;8.680;2023-02-01T16:27:19;11.43;;;2.40;;
13415;SDS011;6779;50.150;8.680;2023-02-01T16:29:45;9.83;;;2.00;;
13415;SDS011;6779;50.150;8.680;2023-02-01T16:32:16;5.03;;;1.87;;
13415;SDS011;6779;50.150;8.680;2023-02-01T16:34:44;9.70;;;2.10;;
13415;SDS011;6779;50.150;8.680;2023-02-01T16:37:12;6.60;;;2.17;;
13415;SDS011;6779;50.150;8.680;2023-02-01T16:39:45;5.47;;;2.10;;
13415;SDS011;6779;50.150;8.680;2023-02-01T16:42:11;8.43;;;2.20;;
13415;SDS011;6779;50.150;8.680;2023-02-01T16:44:38;13.10;;;2.40;;
13415;SDS011;6779;50.150;8.680;2023-02-01T16:47:09;7.20;;;2.27;;
13415;SDS011;6779;50.150;8.680;2023-02-01T16:49:42;6.90;;;2.60;;
13415;SDS011;6779;50.150;8.680;2023-02-01T16:52:11;6.50;;;2.20;;
13415;SDS011;6779;50.150;8.680;2023-02-01T16:54:40;9.30;;;1.80;;
13415;SDS011;6779;50.150;8.680;2023-02-01T16:57:10;7.37;;;2.00;;
13415;SDS011;6779;50.150;8.680;2023-02-01T16:59:37;4.83;;;1.83;;
13415;SDS011;6779;50.150;8.680;2023-02-01T17:02:03;4.67;;;1.90;;
13415;SDS011;6779;50.150;8.680;2023-02-01T17:04:28;6.73;;;1.93;;
13415;SDS011;6779;50.150;8.680;2023-02-01T17:06:54;6.33;;;1.90;;
13415;SDS011;6779;50.150;8.680;2023-02-01T17:09:19;6.23;;;2.10;;
13415;SDS011;6779;50.150;8.680;2023-02-01T17:11:45;4.03;;;1.50;;
13415;SDS011;6779;50.150;8.680;2023-02-01T17:16:41;10.30;;;2.20;;
13415;SDS011;6779;50.150;8.680;2023-02-01T17:19:12;9.10;;;2.67;;
13415;SDS011;6779;50.150;8.680;2023-02-01T17:21:41;4.37;;;1.90;;
13415;SDS011;6779;50.150;8.680;2023-02-01T17:24:15;8.30;;;1.80;;
13415;SDS011;6779;50.150;8.680;2023-02-01T17:26:41;9.77;;;2.00;;
13415;SDS011;6779;50.150;8.680;2023-02-01T17:29:08;9.37;;;1.80;;
13415;SDS011;6779;50.150;8.680;2023-02-01T17:31:35;9.97;;;2.23;;